Historyczne dane pomiarowe

Dodano dane terminowe – wersja testowa.

Dane z okresu 1951-2019

Wersja bazy: 1.34 [2019-03-16, lista zmian], aktualizacja planowana na 2019-04-15

Dane meteo z obszaru Polski uzyskane na podstawie danych udostępnionych przez Instytut Meteorologii i Gospodarki Wodnej – Państwowy Instytut Badawczy.

 

Wybierz Datę:    

       

TemperaturaWilgotnośćWiatrCiśnienieOpadyŚniegCzas trwania zjawisk
 Stacja t tx tn tng RH VA  wxwx mslp ppp RRR   cm mm wxwxwxwxwxwxwx
1994-08-14 14.3 19.2 10.9 10.6 77.8- 4.3 7.3---- 2.2------------
1994-08-13 18.3 22.4 14.4 13.8 83.3- 5.7 2.7---- 2.5------------
1994-08-12 19.8 21.5 17.3 16.1 76.5- 5.0 2.0---- 0.0------------
1994-08-11 19.5 23.5 13.7 9.5 74.8- 4.3 3.3---- 0.0------------
1994-08-10 19.8 23.8 12.5 12.1 80.5- 3.3 3.0---- 0.0------------
1994-08-09 21.0 22.5 16.9 14.7 79.8- 6.0 2.7---- 0.0------------
1994-08-08 20.3 24.9 14.4 13.6 77.5- 3.3 2.7---- 0.0------------
1994-08-07 20.1 25.0 15.6 12.6 82.3- 3.7 3.3---- 0.0------------
1994-08-06 23.9 32.9 17.4 14.6 75.0- 4.3 3.3---- 0.0------------
1994-08-05 22.4 28.3 14.8 13.1 77.5- 1.0 3.0---- 0.0------------
1994-08-04 22.4 25.0 20.4 19.3 80.5- 2.7 3.7---- 0.0------------
1994-08-03 22.6 24.8 21.2 20.0 80.5- 6.0 3.7---- 0.0------------
1994-08-02 23.8 28.0 20.5 19.3 80.3- 3.0 2.3---- 0.0------------
1994-08-01 24.2 29.0 22.3 20.3 75.3- 4.3 4.0---- 0.0------------
1994-07-31 26.9 30.4 24.2 22.1 74.3- 2.7 4.3---- 0.0------------
1994-07-30 27.0 35.7 20.5 17.7 63.3- 2.3 2.7---- 0.0------------
1994-07-29 26.7 35.3 18.5 16.1 60.5- 1.7 2.0---- 0.0------------
1994-07-28 23.9 28.0 17.9 16.2 82.5- 1.0 2.3---- 0.0------------
1994-07-27 24.3 31.0 18.1 14.4 62.5- 1.0 2.0---- 0.0------------
1994-07-26 24.0 28.6 15.9 21.3 68.3- 1.3 2.3---- 0.0------------
1994-07-25 21.0 24.8 14.7 12.6 75.0- 0.0 4.0---- 0.0------------
1994-07-24 21.0 25.8 14.0 10.5 68.3- 0.7 4.3---- 0.0------------
1994-07-23 19.6 24.5 12.3 9.7 72.5- 1.0 2.3---- 0.0------------
1994-07-22 19.3 22.0 11.7 10.7 72.3- 1.3 2.7---- 0.0------------
1994-07-21 17.4 24.7 10.3 9.4 77.5- 0.7 4.3---- 0.0------------
1994-07-20 19.3 21.5 17.1 15.0 69.3- 1.7 4.7---- 0.0------------
1994-07-19 18.7 20.8 17.0 14.9 65.3- 1.3 5.0---- 0.0------------
1994-07-18 17.9 20.8 10.0 8.0 69.3- 3.3 4.7---- 0.0------------
1994-07-17 18.6 22.3 14.9 13.1 74.0- 4.7 3.7---- 0.0------------
1994-07-16 22.0 27.6 17.3 16.2 80.3- 6.3 2.7---- 0.0------------
1994-07-15 25.4 31.8 18.4 15.6 61.8- 2.7 3.0---- 0.0------------
1994-07-14 24.8 28.3 18.3 16.7 73.5- 2.7 3.3---- 0.0------------
1994-07-13 23.2 26.3 19.2 15.7 72.5- 1.7 3.3---- 0.0------------
1994-07-12 21.0 24.0 15.7 13.6 76.0- 2.0 5.0---- 0.0------------
1994-07-11 18.9 22.9 12.4 12.1 80.0- 0.3 3.7---- 0.0------------
1994-07-10 19.2 23.0 16.1 14.3 77.0- 1.3 3.3---- 0.0------------
1994-07-09 15.8 18.9 12.3 11.6 85.8- 4.3 2.3---- 0.0------------
1994-07-08 17.2 23.3 14.4 11.7 71.3- 5.7 3.0---- 17.3------------
1994-07-07 16.1 18.4 8.7 7.7 69.3- 2.0 4.0---- 0.0------------
1994-07-06 16.4 19.1 13.8 12.1 75.3- 3.7 5.0---- 0.0------------
1994-07-05 15.9 18.1 13.4 11.6 78.5- 5.0 5.7---- 0.0------------
1994-07-04 16.8 20.3 9.7 8.2 68.8- 1.0 4.3---- 0.0------------
1994-07-03 16.3 19.9 8.6 5.6 65.8- 3.3 4.3---- 0.0------------
1994-07-02 16.0 19.4 12.4 9.9 70.5- 1.0 3.3---- 0.0------------
1994-07-01 14.9 18.9 10.4 9.1 74.8- 1.7 5.0---- 0.0------------
1994-06-30 18.2 24.8 17.5 17.1 71.0- 5.0 5.0---- 0.0------------
1994-06-29 21.3 27.6 13.3 10.4 72.0- 2.7 3.3---- 0.0------------
1994-06-28 18.2 24.2 11.9 9.6 75.0- 1.0 3.7---- 0.0------------
1994-06-27 20.0 25.8 14.6 11.8 68.8- 4.7 3.0---- 0.0------------
1994-06-26 19.4 30.0 9.8 6.9 67.3- 1.3 6.7---- 0.0------------
1994-06-25 14.5 21.6 6.0 4.4 76.3- 1.0 3.0---- 0.0------------
1994-06-24 14.4 17.4 10.6 9.6 70.8- 2.3 5.7---- 0.0------------
1994-06-23 14.2 16.5 10.4 10.6 66.0- 6.3 11.7---- 0.4------------
1994-06-22 17.2 21.6 13.4 13.2 78.3- 6.3 8.0---- 0.0------------
1994-06-21 13.1 17.4 7.0 4.3 79.5- 4.7 2.7---- 0.1------------
1994-06-20 14.4 16.9 11.4 10.6 67.0- 5.0 7.0---- 0.0------------
1994-06-19 13.2 15.5 10.3 9.9 86.5- 8.0 5.7---- 1.0------------
1994-06-18 11.0 17.4 3.9 1.9 80.0- 5.0 3.0---- 4.4------------
1994-06-17 8.8 13.4 4.0 2.3 83.0- 6.7 4.0---- 6.9------------
1994-06-16 11.8 15.4 8.2 7.7 70.8- 6.0 7.0---- 0.4------------
345.8 ms

 

Źródłem pochodzenia danych jest Instytut Meteorologii i Gospodarki Wodnej – Państwowy Instytut Badawczy. Dane Instytutu Meteorologii i Gospodarki Wodnej – Państwowego Instytutu Badawczego zostały przetworzone.

Dane źródłowe można odnaleźć na stronie https://dane.imgw.pl